sensor_id;sensor_type;location;lat;lon;timestamp;P1;durP1;ratioP1;P2;durP2;ratioP2
49241;SDS011;35079;52.704;13.814;2024-03-02T00:00:14;72.97;;;38.88;;
49241;SDS011;35079;52.704;13.814;2024-03-02T00:02:40;76.18;;;42.35;;
49241;SDS011;35079;52.704;13.814;2024-03-02T00:05:06;74.13;;;39.85;;
49241;SDS011;35079;52.704;13.814;2024-03-02T00:07:32;69.35;;;40.50;;
49241;SDS011;35079;52.704;13.814;2024-03-02T00:09:59;70.85;;;39.13;;
49241;SDS011;35079;52.704;13.814;2024-03-02T00:12:25;76.85;;;41.63;;
49241;SDS011;35079;52.704;13.814;2024-03-02T00:14:51;77.57;;;42.10;;
49241;SDS011;35079;52.704;13.814;2024-03-02T00:17:26;84.95;;;44.38;;
49241;SDS011;35079;52.704;13.814;2024-03-02T00:19:52;76.97;;;42.50;;
49241;SDS011;35079;52.704;13.814;2024-03-02T00:22:17;78.05;;;43.53;;
49241;SDS011;35079;52.704;13.814;2024-03-02T00:24:43;79.47;;;42.35;;
49241;SDS011;35079;52.704;13.814;2024-03-02T00:27:09;76.68;;;40.28;;
49241;SDS011;35079;52.704;13.814;2024-03-02T00:29:40;75.57;;;39.42;;
49241;SDS011;35079;52.704;13.814;2024-03-02T00:32:10;68.68;;;37.60;;
49241;SDS011;35079;52.704;13.814;2024-03-02T00:34:38;79.32;;;43.88;;
49241;SDS011;35079;52.704;13.814;2024-03-02T00:37:05;78.47;;;42.30;;
49241;SDS011;35079;52.704;13.814;2024-03-02T00:39:31;75.22;;;41.78;;
49241;SDS011;35079;52.704;13.814;2024-03-02T00:41:57;83.47;;;45.58;;
49241;SDS011;35079;52.704;13.814;2024-03-02T00:44:25;82.28;;;46.55;;
49241;SDS011;35079;52.704;13.814;2024-03-02T00:46:59;75.40;;;42.10;;
49241;SDS011;35079;52.704;13.814;2024-03-02T00:49:25;81.30;;;42.80;;
49241;SDS011;35079;52.704;13.814;2024-03-02T00:51:53;72.75;;;41.55;;
49241;SDS011;35079;52.704;13.814;2024-03-02T00:54:23;83.00;;;43.97;;
49241;SDS011;35079;52.704;13.814;2024-03-02T00:56:54;80.05;;;44.25;;
49241;SDS011;35079;52.704;13.814;2024-03-02T00:59:21;90.90;;;47.53;;
49241;SDS011;35079;52.704;13.814;2024-03-02T01:01:47;88.93;;;47.15;;
49241;SDS011;35079;52.704;13.814;2024-03-02T01:04:17;90.68;;;47.25;;
49241;SDS011;35079;52.704;13.814;2024-03-02T01:06:43;81.95;;;44.50;;
49241;SDS011;35079;52.704;13.814;2024-03-02T01:09:09;85.32;;;46.92;;
49241;SDS011;35079;52.704;13.814;2024-03-02T01:11:34;80.38;;;43.80;;
49241;SDS011;35079;52.704;13.814;2024-03-02T01:14:00;88.63;;;50.03;;
49241;SDS011;35079;52.704;13.814;2024-03-02T01:16:26;78.30;;;42.47;;
49241;SDS011;35079;52.704;13.814;2024-03-02T01:18:52;85.93;;;48.90;;
49241;SDS011;35079;52.704;13.814;2024-03-02T01:21:18;87.15;;;47.55;;
49241;SDS011;35079;52.704;13.814;2024-03-02T01:23:43;85.05;;;48.53;;
49241;SDS011;35079;52.704;13.814;2024-03-02T01:26:09;87.95;;;49.15;;
49241;SDS011;35079;52.704;13.814;2024-03-02T01:28:35;72.20;;;41.25;;
49241;SDS011;35079;52.704;13.814;2024-03-02T01:31:01;86.18;;;48.78;;
49241;SDS011;35079;52.704;13.814;2024-03-02T01:33:27;84.07;;;47.70;;
49241;SDS011;35079;52.704;13.814;2024-03-02T01:35:53;82.22;;;45.03;;
49241;SDS011;35079;52.704;13.814;2024-03-02T01:38:18;89.10;;;48.30;;
49241;SDS011;35079;52.704;13.814;2024-03-02T01:40:44;81.43;;;46.35;;
49241;SDS011;35079;52.704;13.814;2024-03-02T01:43:10;76.82;;;44.25;;
49241;SDS011;35079;52.704;13.814;2024-03-02T01:45:36;84.22;;;48.63;;
49241;SDS011;35079;52.704;13.814;2024-03-02T01:48:03;92.60;;;51.00;;
49241;SDS011;35079;52.704;13.814;2024-03-02T01:50:32;84.85;;;46.15;;
49241;SDS011;35079;52.704;13.814;2024-03-02T01:52:59;86.80;;;47.40;;
49241;SDS011;35079;52.704;13.814;2024-03-02T01:55:26;92.30;;;50.03;;
49241;SDS011;35079;52.704;13.814;2024-03-02T01:57:54;85.20;;;47.47;;
49241;SDS011;35079;52.704;13.814;2024-03-02T02:00:20;87.80;;;48.20;;
49241;SDS011;35079;52.704;13.814;2024-03-02T02:02:46;93.47;;;47.83;;
49241;SDS011;35079;52.704;13.814;2024-03-02T02:05:13;91.72;;;47.35;;
49241;SDS011;35079;52.704;13.814;2024-03-02T02:07:40;81.70;;;44.90;;
49241;SDS011;35079;52.704;13.814;2024-03-02T02:10:06;86.95;;;49.00;;
49241;SDS011;35079;52.704;13.814;2024-03-02T02:12:32;87.70;;;46.80;;
49241;SDS011;35079;52.704;13.814;2024-03-02T02:14:58;88.95;;;47.72;;
49241;SDS011;35079;52.704;13.814;2024-03-02T02:17:24;86.32;;;43.97;;
49241;SDS011;35079;52.704;13.814;2024-03-02T02:19:49;73.13;;;42.70;;
49241;SDS011;35079;52.704;13.814;2024-03-02T02:22:15;85.07;;;46.22;;
49241;SDS011;35079;52.704;13.814;2024-03-02T02:24:41;87.50;;;48.63;;
49241;SDS011;35079;52.704;13.814;2024-03-02T02:27:10;85.50;;;47.22;;
49241;SDS011;35079;52.704;13.814;2024-03-02T02:29:37;107.47;;;52.85;;
49241;SDS011;35079;52.704;13.814;2024-03-02T02:32:03;103.88;;;54.53;;
49241;SDS011;35079;52.704;13.814;2024-03-02T02:34:29;97.60;;;50.88;;
49241;SDS011;35079;52.704;13.814;2024-03-02T02:36:55;94.55;;;52.10;;
49241;SDS011;35079;52.704;13.814;2024-03-02T02:39:21;95.82;;;49.80;;
49241;SDS011;35079;52.704;13.814;2024-03-02T02:41:47;106.30;;;57.22;;
49241;SDS011;35079;52.704;13.814;2024-03-02T02:44:13;95.07;;;51.30;;
49241;SDS011;35079;52.704;13.814;2024-03-02T02:46:39;92.85;;;49.10;;
49241;SDS011;35079;52.704;13.814;2024-03-02T02:49:06;76.95;;;46.03;;
49241;SDS011;35079;52.704;13.814;2024-03-02T02:51:32;87.18;;;45.97;;
49241;SDS011;35079;52.704;13.814;2024-03-02T02:53:57;91.82;;;51.05;;
49241;SDS011;35079;52.704;13.814;2024-03-02T02:56:23;85.93;;;48.75;;
49241;SDS011;35079;52.704;13.814;2024-03-02T02:58:49;88.18;;;47.53;;
49241;SDS011;35079;52.704;13.814;2024-03-02T03:01:15;97.43;;;53.83;;
49241;SDS011;35079;52.704;13.814;2024-03-02T03:03:44;91.55;;;46.85;;
49241;SDS011;35079;52.704;13.814;2024-03-02T03:06:10;89.88;;;50.33;;
49241;SDS011;35079;52.704;13.814;2024-03-02T03:08:36;93.45;;;49.38;;
49241;SDS011;35079;52.704;13.814;2024-03-02T03:11:03;92.05;;;48.80;;
49241;SDS011;35079;52.704;13.814;2024-03-02T03:13:29;80.60;;;45.50;;
49241;SDS011;35079;52.704;13.814;2024-03-02T03:15:56;86.47;;;49.72;;
49241;SDS011;35079;52.704;13.814;2024-03-02T03:18:21;90.18;;;49.15;;
49241;SDS011;35079;52.704;13.814;2024-03-02T03:20:47;73.95;;;43.85;;
49241;SDS011;35079;52.704;13.814;2024-03-02T03:23:13;87.88;;;46.75;;
49241;SDS011;35079;52.704;13.814;2024-03-02T03:25:41;88.25;;;48.85;;
49241;SDS011;35079;52.704;13.814;2024-03-02T03:28:07;77.85;;;43.85;;
49241;SDS011;35079;52.704;13.814;2024-03-02T03:30:35;89.57;;;48.67;;
49241;SDS011;35079;52.704;13.814;2024-03-02T03:33:04;72.70;;;42.30;;
49241;SDS011;35079;52.704;13.814;2024-03-02T03:35:33;70.78;;;42.70;;
49241;SDS011;35079;52.704;13.814;2024-03-02T03:37:59;79.43;;;43.55;;
49241;SDS011;35079;52.704;13.814;2024-03-02T03:40:25;69.72;;;39.80;;
49241;SDS011;35079;52.704;13.814;2024-03-02T03:42:51;65.07;;;38.58;;
49241;SDS011;35079;52.704;13.814;2024-03-02T03:45:17;68.18;;;37.83;;
49241;SDS011;35079;52.704;13.814;2024-03-02T03:47:42;61.33;;;36.80;;
49241;SDS011;35079;52.704;13.814;2024-03-02T03:50:08;63.55;;;36.50;;
49241;SDS011;35079;52.704;13.814;2024-03-02T03:52:35;55.58;;;35.13;;
49241;SDS011;35079;52.704;13.814;2024-03-02T03:55:00;61.58;;;35.45;;
49241;SDS011;35079;52.704;13.814;2024-03-02T03:57:26;57.65;;;34.47;;
49241;SDS011;35079;52.704;13.814;2024-03-02T03:59:52;60.70;;;35.13;;
49241;SDS011;35079;52.704;13.814;2024-03-02T04:02:19;57.72;;;33.97;;
49241;SDS011;35079;52.704;13.814;2024-03-02T04:04:44;63.13;;;35.40;;
49241;SDS011;35079;52.704;13.814;2024-03-02T04:07:11;57.45;;;35.38;;
49241;SDS011;35079;52.704;13.814;2024-03-02T04:09:36;58.67;;;34.20;;
49241;SDS011;35079;52.704;13.814;2024-03-02T04:12:02;56.45;;;34.53;;
49241;SDS011;35079;52.704;13.814;2024-03-02T04:14:28;62.33;;;35.47;;
49241;SDS011;35079;52.704;13.814;2024-03-02T04:16:56;55.58;;;35.63;;
49241;SDS011;35079;52.704;13.814;2024-03-02T04:19:22;61.90;;;33.95;;
49241;SDS011;35079;52.704;13.814;2024-03-02T04:21:51;61.65;;;35.03;;
49241;SDS011;35079;52.704;13.814;2024-03-02T04:24:17;56.30;;;33.33;;
49241;SDS011;35079;52.704;13.814;2024-03-02T04:26:43;59.10;;;34.45;;
49241;SDS011;35079;52.704;13.814;2024-03-02T04:29:12;55.03;;;34.58;;
49241;SDS011;35079;52.704;13.814;2024-03-02T04:32:00;56.78;;;34.13;;
49241;SDS011;35079;52.704;13.814;2024-03-02T04:34:26;54.17;;;33.80;;
49241;SDS011;35079;52.704;13.814;2024-03-02T04:36:52;58.05;;;33.47;;
49241;SDS011;35079;52.704;13.814;2024-03-02T04:39:18;59.42;;;35.80;;
49241;SDS011;35079;52.704;13.814;2024-03-02T04:41:44;56.38;;;33.25;;
49241;SDS011;35079;52.704;13.814;2024-03-02T04:44:10;60.50;;;35.30;;
49241;SDS011;35079;52.704;13.814;2024-03-02T04:46:39;56.13;;;35.20;;
49241;SDS011;35079;52.704;13.814;2024-03-02T04:49:08;61.25;;;35.83;;
49241;SDS011;35079;52.704;13.814;2024-03-02T04:51:37;60.25;;;35.88;;
49241;SDS011;35079;52.704;13.814;2024-03-02T04:54:07;57.85;;;35.92;;
49241;SDS011;35079;52.704;13.814;2024-03-02T04:56:33;59.83;;;36.47;;
49241;SDS011;35079;52.704;13.814;2024-03-02T04:59:15;58.75;;;34.45;;
49241;SDS011;35079;52.704;13.814;2024-03-02T05:01:47;65.95;;;37.33;;
49241;SDS011;35079;52.704;13.814;2024-03-02T05:04:12;54.65;;;34.42;;
49241;SDS011;35079;52.704;13.814;2024-03-02T05:06:56;59.53;;;36.75;;
49241;SDS011;35079;52.704;13.814;2024-03-02T05:09:30;64.95;;;35.97;;
49241;SDS011;35079;52.704;13.814;2024-03-02T05:12:10;56.95;;;35.75;;
49241;SDS011;35079;52.704;13.814;2024-03-02T05:15:22;73.60;;;42.97;;
49241;SDS011;35079;52.704;13.814;2024-03-02T05:17:56;65.00;;;38.42;;
49241;SDS011;35079;52.704;13.814;2024-03-02T05:20:30;62.40;;;36.42;;
49241;SDS011;35079;52.704;13.814;2024-03-02T05:23:19;66.25;;;38.65;;
49241;SDS011;35079;52.704;13.814;2024-03-02T05:25:53;58.15;;;34.95;;
49241;SDS011;35079;52.704;13.814;2024-03-02T05:28:36;66.68;;;36.28;;
49241;SDS011;35079;52.704;13.814;2024-03-02T05:31:09;60.17;;;34.55;;
49241;SDS011;35079;52.704;13.814;2024-03-02T05:33:43;58.53;;;36.00;;
49241;SDS011;35079;52.704;13.814;2024-03-02T05:36:32;63.90;;;37.50;;
49241;SDS011;35079;52.704;13.814;2024-03-02T05:39:04;62.17;;;35.65;;
49241;SDS011;35079;52.704;13.814;2024-03-02T05:41:39;62.45;;;36.83;;
49241;SDS011;35079;52.704;13.814;2024-03-02T05:44:21;58.33;;;35.92;;
49241;SDS011;35079;52.704;13.814;2024-03-02T05:46:57;60.40;;;37.20;;
49241;SDS011;35079;52.704;13.814;2024-03-02T05:49:50;55.63;;;34.63;;
49241;SDS011;35079;52.704;13.814;2024-03-02T05:52:57;60.13;;;35.92;;
49241;SDS011;35079;52.704;13.814;2024-03-02T05:55:44;56.47;;;35.15;;
49241;SDS011;35079;52.704;13.814;2024-03-02T05:58:35;55.80;;;34.22;;
49241;SDS011;35079;52.704;13.814;2024-03-02T06:01:25;54.58;;;33.45;;
49241;SDS011;35079;52.704;13.814;2024-03-02T06:04:00;55.47;;;34.38;;
49241;SDS011;35079;52.704;13.814;2024-03-02T06:09:43;63.58;;;36.83;;
49241;SDS011;35079;52.704;13.814;2024-03-02T06:13:06;66.22;;;38.72;;
49241;SDS011;35079;52.704;13.814;2024-03-02T06:19:49;62.58;;;37.72;;
49241;SDS011;35079;52.704;13.814;2024-03-02T06:27:12;70.95;;;37.38;;
49241;SDS011;35079;52.704;13.814;2024-03-02T06:30:15;66.03;;;37.22;;
49241;SDS011;35079;52.704;13.814;2024-03-02T06:33:05;69.32;;;37.97;;
49241;SDS011;35079;52.704;13.814;2024-03-02T06:35:52;66.90;;;39.85;;
49241;SDS011;35079;52.704;13.814;2024-03-02T06:42:06;64.03;;;38.65;;
49241;SDS011;35079;52.704;13.814;2024-03-02T06:45:23;71.93;;;39.25;;
49241;SDS011;35079;52.704;13.814;2024-03-02T06:50:57;68.80;;;39.35;;
49241;SDS011;35079;52.704;13.814;2024-03-02T06:56:12;63.63;;;37.20;;
49241;SDS011;35079;52.704;13.814;2024-03-02T06:58:43;68.47;;;39.08;;
49241;SDS011;35079;52.704;13.814;2024-03-02T07:04:39;70.85;;;38.67;;
49241;SDS011;35079;52.704;13.814;2024-03-02T07:07:10;69.72;;;37.55;;
49241;SDS011;35079;52.704;13.814;2024-03-02T07:10:00;68.80;;;39.90;;
49241;SDS011;35079;52.704;13.814;2024-03-02T07:12:29;67.07;;;39.25;;
49241;SDS011;35079;52.704;13.814;2024-03-02T07:15:23;66.97;;;39.63;;
49241;SDS011;35079;52.704;13.814;2024-03-02T07:18:13;66.40;;;38.15;;
49241;SDS011;35079;52.704;13.814;2024-03-02T07:20:44;72.60;;;41.88;;
49241;SDS011;35079;52.704;13.814;2024-03-02T07:23:43;68.68;;;39.33;;
49241;SDS011;35079;52.704;13.814;2024-03-02T07:26:48;73.60;;;40.13;;
49241;SDS011;35079;52.704;13.814;2024-03-02T07:32:53;66.88;;;37.45;;
49241;SDS011;35079;52.704;13.814;2024-03-02T07:36:06;72.55;;;38.95;;
49241;SDS011;35079;52.704;13.814;2024-03-02T07:41:33;74.95;;;38.15;;
49241;SDS011;35079;52.704;13.814;2024-03-02T07:44:29;64.75;;;37.65;;
49241;SDS011;35079;52.704;13.814;2024-03-02T07:50:15;72.25;;;39.42;;
49241;SDS011;35079;52.704;13.814;2024-03-02T07:52:50;68.18;;;37.55;;
49241;SDS011;35079;52.704;13.814;2024-03-02T07:55:22;71.53;;;39.75;;
49241;SDS011;35079;52.704;13.814;2024-03-02T08:01:04;71.47;;;38.40;;
49241;SDS011;35079;52.704;13.814;2024-03-02T08:03:38;68.97;;;38.55;;
49241;SDS011;35079;52.704;13.814;2024-03-02T08:06:21;68.55;;;38.45;;
49241;SDS011;35079;52.704;13.814;2024-03-02T08:09:16;72.47;;;39.30;;
49241;SDS011;35079;52.704;13.814;2024-03-02T09:06:29;64.38;;;36.00;;
49241;SDS011;35079;52.704;13.814;2024-03-02T09:09:05;64.18;;;35.47;;
49241;SDS011;35079;52.704;13.814;2024-03-02T09:14:39;61.58;;;33.38;;
49241;SDS011;35079;52.704;13.814;2024-03-02T09:17:12;62.60;;;35.47;;
49241;SDS011;35079;52.704;13.814;2024-03-02T09:19:38;57.45;;;31.33;;
49241;SDS011;35079;52.704;13.814;2024-03-02T09:22:04;51.63;;;30.40;;
49241;SDS011;35079;52.704;13.814;2024-03-02T09:24:30;51.30;;;31.08;;
49241;SDS011;35079;52.704;13.814;2024-03-02T09:26:58;53.20;;;28.67;;
49241;SDS011;35079;52.704;13.814;2024-03-02T09:29:24;50.05;;;29.02;;
49241;SDS011;35079;52.704;13.814;2024-03-02T09:31:49;49.03;;;28.42;;
49241;SDS011;35079;52.704;13.814;2024-03-02T09:34:15;53.42;;;31.73;;
49241;SDS011;35079;52.704;13.814;2024-03-02T09:36:41;55.10;;;30.75;;
49241;SDS011;35079;52.704;13.814;2024-03-02T09:39:08;50.15;;;29.58;;
49241;SDS011;35079;52.704;13.814;2024-03-02T09:41:34;50.42;;;30.17;;
49241;SDS011;35079;52.704;13.814;2024-03-02T09:44:02;47.15;;;28.38;;
49241;SDS011;35079;52.704;13.814;2024-03-02T09:46:28;52.33;;;31.00;;
49241;SDS011;35079;52.704;13.814;2024-03-02T09:48:56;57.63;;;33.28;;
49241;SDS011;35079;52.704;13.814;2024-03-02T09:51:25;59.15;;;36.00;;
49241;SDS011;35079;52.704;13.814;2024-03-02T09:53:55;57.10;;;34.42;;
49241;SDS011;35079;52.704;13.814;2024-03-02T09:56:24;53.92;;;31.45;;
49241;SDS011;35079;52.704;13.814;2024-03-02T09:58:49;55.65;;;32.65;;
49241;SDS011;35079;52.704;13.814;2024-03-02T10:01:15;58.08;;;32.90;;
49241;SDS011;35079;52.704;13.814;2024-03-02T10:03:41;54.20;;;32.35;;
49241;SDS011;35079;52.704;13.814;2024-03-02T10:16:53;49.72;;;29.55;;
49241;SDS011;35079;52.704;13.814;2024-03-02T10:19:31;45.95;;;26.88;;
49241;SDS011;35079;52.704;13.814;2024-03-02T10:21:58;43.28;;;26.55;;
49241;SDS011;35079;52.704;13.814;2024-03-02T10:24:24;41.67;;;25.48;;
49241;SDS011;35079;52.704;13.814;2024-03-02T10:26:50;40.40;;;25.02;;
49241;SDS011;35079;52.704;13.814;2024-03-02T10:29:17;38.17;;;23.08;;
49241;SDS011;35079;52.704;13.814;2024-03-02T10:31:44;44.65;;;25.05;;
49241;SDS011;35079;52.704;13.814;2024-03-02T10:34:13;40.13;;;24.08;;
49241;SDS011;35079;52.704;13.814;2024-03-02T10:36:41;42.92;;;25.50;;
49241;SDS011;35079;52.704;13.814;2024-03-02T10:39:08;40.08;;;24.35;;
49241;SDS011;35079;52.704;13.814;2024-03-02T10:41:34;37.55;;;22.40;;
49241;SDS011;35079;52.704;13.814;2024-03-02T10:44:02;38.78;;;23.25;;
49241;SDS011;35079;52.704;13.814;2024-03-02T10:46:29;42.20;;;24.25;;
49241;SDS011;35079;52.704;13.814;2024-03-02T10:48:56;41.75;;;23.95;;
49241;SDS011;35079;52.704;13.814;2024-03-02T10:51:24;41.75;;;24.58;;
49241;SDS011;35079;52.704;13.814;2024-03-02T10:53:51;45.53;;;25.13;;
49241;SDS011;35079;52.704;13.814;2024-03-02T10:56:21;39.20;;;21.80;;
49241;SDS011;35079;52.704;13.814;2024-03-02T10:58:59;36.60;;;22.38;;
49241;SDS011;35079;52.704;13.814;2024-03-02T11:01:47;40.58;;;22.75;;
49241;SDS011;35079;52.704;13.814;2024-03-02T11:04:15;38.13;;;22.73;;
49241;SDS011;35079;52.704;13.814;2024-03-02T11:06:44;40.03;;;23.23;;
49241;SDS011;35079;52.704;13.814;2024-03-02T11:09:13;35.63;;;20.90;;
49241;SDS011;35079;52.704;13.814;2024-03-02T11:11:41;38.35;;;23.33;;
49241;SDS011;35079;52.704;13.814;2024-03-02T11:14:11;33.50;;;19.70;;
49241;SDS011;35079;52.704;13.814;2024-03-02T11:16:41;31.95;;;20.23;;
49241;SDS011;35079;52.704;13.814;2024-03-02T11:19:12;36.65;;;21.15;;
49241;SDS011;35079;52.704;13.814;2024-03-02T11:21:39;33.70;;;19.67;;
49241;SDS011;35079;52.704;13.814;2024-03-02T11:26:49;34.67;;;19.75;;
49241;SDS011;35079;52.704;13.814;2024-03-02T11:32:02;29.35;;;16.95;;
49241;SDS011;35079;52.704;13.814;2024-03-02T11:34:31;30.58;;;17.58;;
49241;SDS011;35079;52.704;13.814;2024-03-02T11:36:58;26.33;;;17.17;;
49241;SDS011;35079;52.704;13.814;2024-03-02T11:39:26;29.38;;;18.02;;
49241;SDS011;35079;52.704;13.814;2024-03-02T11:41:53;27.38;;;16.45;;
49241;SDS011;35079;52.704;13.814;2024-03-02T11:44:19;27.08;;;17.13;;
49241;SDS011;35079;52.704;13.814;2024-03-02T11:46:46;27.55;;;17.05;;
49241;SDS011;35079;52.704;13.814;2024-03-02T11:49:26;28.52;;;16.92;;
49241;SDS011;35079;52.704;13.814;2024-03-02T11:52:06;28.63;;;17.25;;
49241;SDS011;35079;52.704;13.814;2024-03-02T11:54:36;25.45;;;16.15;;
49241;SDS011;35079;52.704;13.814;2024-03-02T11:57:06;25.88;;;16.40;;
49241;SDS011;35079;52.704;13.814;2024-03-02T11:59:33;25.38;;;16.42;;
49241;SDS011;35079;52.704;13.814;2024-03-02T12:01:58;25.38;;;15.45;;
49241;SDS011;35079;52.704;13.814;2024-03-02T12:04:25;24.13;;;16.33;;
49241;SDS011;35079;52.704;13.814;2024-03-02T12:07:00;23.25;;;15.30;;
49241;SDS011;35079;52.704;13.814;2024-03-02T12:09:27;23.52;;;14.27;;
49241;SDS011;35079;52.704;13.814;2024-03-02T12:12:06;20.67;;;14.82;;
49241;SDS011;35079;52.704;13.814;2024-03-02T12:14:33;23.27;;;15.90;;
49241;SDS011;35079;52.704;13.814;2024-03-02T12:17:00;24.20;;;14.70;;
49241;SDS011;35079;52.704;13.814;2024-03-02T12:19:27;21.13;;;14.40;;
49241;SDS011;35079;52.704;13.814;2024-03-02T12:21:54;23.90;;;13.05;;
49241;SDS011;35079;52.704;13.814;2024-03-02T12:24:21;25.20;;;14.05;;
49241;SDS011;35079;52.704;13.814;2024-03-02T12:26:47;18.55;;;12.02;;
49241;SDS011;35079;52.704;13.814;2024-03-02T12:29:18;19.17;;;12.40;;
49241;SDS011;35079;52.704;13.814;2024-03-02T12:31:44;20.20;;;13.00;;
49241;SDS011;35079;52.704;13.814;2024-03-02T12:34:11;17.48;;;11.15;;
49241;SDS011;35079;52.704;13.814;2024-03-02T12:36:38;16.65;;;11.98;;
49241;SDS011;35079;52.704;13.814;2024-03-02T12:39:06;19.33;;;12.95;;
49241;SDS011;35079;52.704;13.814;2024-03-02T12:41:35;17.95;;;11.80;;
49241;SDS011;35079;52.704;13.814;2024-03-02T12:44:02;18.63;;;12.75;;
49241;SDS011;35079;52.704;13.814;2024-03-02T12:46:28;17.58;;;11.27;;
49241;SDS011;35079;52.704;13.814;2024-03-02T12:48:54;22.60;;;13.48;;
49241;SDS011;35079;52.704;13.814;2024-03-02T12:51:19;19.98;;;12.35;;
49241;SDS011;35079;52.704;13.814;2024-03-02T12:53:45;19.42;;;12.40;;
49241;SDS011;35079;52.704;13.814;2024-03-02T12:56:18;20.08;;;11.63;;
49241;SDS011;35079;52.704;13.814;2024-03-02T12:58:43;15.70;;;10.60;;
49241;SDS011;35079;52.704;13.814;2024-03-02T13:01:09;15.85;;;10.15;;
49241;SDS011;35079;52.704;13.814;2024-03-02T13:03:39;17.00;;;11.20;;
49241;SDS011;35079;52.704;13.814;2024-03-02T13:06:05;15.50;;;9.45;;
49241;SDS011;35079;52.704;13.814;2024-03-02T13:08:32;15.57;;;10.25;;
49241;SDS011;35079;52.704;13.814;2024-03-02T13:10:58;18.50;;;11.07;;
49241;SDS011;35079;52.704;13.814;2024-03-02T13:13:24;16.77;;;11.38;;
49241;SDS011;35079;52.704;13.814;2024-03-02T13:15:50;14.68;;;9.68;;
49241;SDS011;35079;52.704;13.814;2024-03-02T13:18:19;15.43;;;10.30;;
49241;SDS011;35079;52.704;13.814;2024-03-02T13:20:45;15.98;;;10.77;;
49241;SDS011;35079;52.704;13.814;2024-03-02T13:23:10;15.75;;;9.45;;
49241;SDS011;35079;52.704;13.814;2024-03-02T13:25:36;19.13;;;11.90;;
49241;SDS011;35079;52.704;13.814;2024-03-02T13:28:01;18.83;;;11.88;;
49241;SDS011;35079;52.704;13.814;2024-03-02T13:30:28;17.73;;;10.90;;
49241;SDS011;35079;52.704;13.814;2024-03-02T13:32:54;18.48;;;10.93;;
49241;SDS011;35079;52.704;13.814;2024-03-02T13:35:19;14.80;;;9.98;;
49241;SDS011;35079;52.704;13.814;2024-03-02T13:37:45;16.92;;;10.52;;
49241;SDS011;35079;52.704;13.814;2024-03-02T13:40:11;19.40;;;12.68;;
49241;SDS011;35079;52.704;13.814;2024-03-02T13:42:41;17.65;;;11.57;;
49241;SDS011;35079;52.704;13.814;2024-03-02T13:45:07;15.57;;;9.85;;
49241;SDS011;35079;52.704;13.814;2024-03-02T13:47:33;17.00;;;10.23;;
49241;SDS011;35079;52.704;13.814;2024-03-02T13:49:59;16.52;;;10.38;;
49241;SDS011;35079;52.704;13.814;2024-03-02T13:52:24;18.77;;;12.32;;
49241;SDS011;35079;52.704;13.814;2024-03-02T13:54:51;22.90;;;14.25;;
49241;SDS011;35079;52.704;13.814;2024-03-02T13:57:20;23.67;;;16.48;;
49241;SDS011;35079;52.704;13.814;2024-03-02T13:59:45;31.73;;;20.13;;
49241;SDS011;35079;52.704;13.814;2024-03-02T14:02:12;26.33;;;15.65;;
49241;SDS011;35079;52.704;13.814;2024-03-02T14:04:38;25.98;;;15.73;;
49241;SDS011;35079;52.704;13.814;2024-03-02T14:07:04;26.73;;;15.45;;
49241;SDS011;35079;52.704;13.814;2024-03-02T14:09:34;30.08;;;16.85;;
49241;SDS011;35079;52.704;13.814;2024-03-02T14:12:00;35.92;;;18.50;;
49241;SDS011;35079;52.704;13.814;2024-03-02T14:14:26;26.65;;;14.98;;
49241;SDS011;35079;52.704;13.814;2024-03-02T14:16:52;22.33;;;13.38;;
49241;SDS011;35079;52.704;13.814;2024-03-02T14:19:19;18.67;;;12.63;;
49241;SDS011;35079;52.704;13.814;2024-03-02T14:21:46;16.10;;;10.63;;
49241;SDS011;35079;52.704;13.814;2024-03-02T14:24:12;17.48;;;10.25;;
49241;SDS011;35079;52.704;13.814;2024-03-02T14:26:38;16.88;;;10.43;;
49241;SDS011;35079;52.704;13.814;2024-03-02T14:29:04;16.08;;;10.07;;
49241;SDS011;35079;52.704;13.814;2024-03-02T14:31:30;17.70;;;10.25;;
49241;SDS011;35079;52.704;13.814;2024-03-02T14:33:56;19.70;;;11.20;;
49241;SDS011;35079;52.704;13.814;2024-03-02T14:36:22;16.58;;;10.55;;
49241;SDS011;35079;52.704;13.814;2024-03-02T14:38:48;17.35;;;9.35;;
49241;SDS011;35079;52.704;13.814;2024-03-02T14:41:14;16.23;;;9.95;;
49241;SDS011;35079;52.704;13.814;2024-03-02T14:43:40;18.77;;;10.60;;
49241;SDS011;35079;52.704;13.814;2024-03-02T14:46:06;15.00;;;10.65;;
49241;SDS011;35079;52.704;13.814;2024-03-02T14:48:35;18.48;;;11.20;;
49241;SDS011;35079;52.704;13.814;2024-03-02T14:51:01;18.10;;;10.38;;
49241;SDS011;35079;52.704;13.814;2024-03-02T14:53:27;16.45;;;10.13;;
49241;SDS011;35079;52.704;13.814;2024-03-02T14:55:53;17.80;;;10.85;;
49241;SDS011;35079;52.704;13.814;2024-03-02T14:58:20;17.10;;;10.68;;
49241;SDS011;35079;52.704;13.814;2024-03-02T15:00:46;18.13;;;10.73;;
49241;SDS011;35079;52.704;13.814;2024-03-02T15:03:12;50.80;;;28.35;;
49241;SDS011;35079;52.704;13.814;2024-03-02T15:05:38;23.13;;;14.57;;
49241;SDS011;35079;52.704;13.814;2024-03-02T15:08:05;27.50;;;18.67;;
49241;SDS011;35079;52.704;13.814;2024-03-02T15:10:31;16.25;;;11.63;;
49241;SDS011;35079;52.704;13.814;2024-03-02T15:12:59;22.20;;;13.48;;
49241;SDS011;35079;52.704;13.814;2024-03-02T15:15:25;22.17;;;14.35;;
49241;SDS011;35079;52.704;13.814;2024-03-02T15:17:51;28.00;;;17.02;;
49241;SDS011;35079;52.704;13.814;2024-03-02T15:20:17;23.10;;;14.15;;
49241;SDS011;35079;52.704;13.814;2024-03-02T15:22:45;19.95;;;12.45;;
49241;SDS011;35079;52.704;13.814;2024-03-02T15:25:11;20.55;;;13.30;;
49241;SDS011;35079;52.704;13.814;2024-03-02T15:27:36;22.73;;;12.77;;
49241;SDS011;35079;52.704;13.814;2024-03-02T15:30:02;23.30;;;13.65;;
49241;SDS011;35079;52.704;13.814;2024-03-02T15:32:28;23.73;;;13.52;;
49241;SDS011;35079;52.704;13.814;2024-03-02T15:34:54;23.20;;;12.65;;
49241;SDS011;35079;52.704;13.814;2024-03-02T15:37:20;25.55;;;13.82;;
49241;SDS011;35079;52.704;13.814;2024-03-02T15:39:45;28.15;;;17.38;;
49241;SDS011;35079;52.704;13.814;2024-03-02T15:42:11;28.10;;;16.65;;
49241;SDS011;35079;52.704;13.814;2024-03-02T15:44:37;20.88;;;12.73;;
49241;SDS011;35079;52.704;13.814;2024-03-02T15:47:04;20.70;;;13.18;;
49241;SDS011;35079;52.704;13.814;2024-03-02T15:49:30;24.73;;;13.88;;
49241;SDS011;35079;52.704;13.814;2024-03-02T15:51:57;23.75;;;14.02;;
49241;SDS011;35079;52.704;13.814;2024-03-02T15:54:25;27.70;;;16.35;;
49241;SDS011;35079;52.704;13.814;2024-03-02T15:56:51;29.55;;;18.70;;
49241;SDS011;35079;52.704;13.814;2024-03-02T15:59:16;27.55;;;16.55;;
49241;SDS011;35079;52.704;13.814;2024-03-02T16:01:42;28.85;;;17.77;;
49241;SDS011;35079;52.704;13.814;2024-03-02T16:04:08;34.83;;;23.25;;
49241;SDS011;35079;52.704;13.814;2024-03-02T16:06:34;27.10;;;17.48;;
49241;SDS011;35079;52.704;13.814;2024-03-02T16:08:59;22.17;;;14.55;;
49241;SDS011;35079;52.704;13.814;2024-03-02T16:11:25;20.75;;;14.13;;
49241;SDS011;35079;52.704;13.814;2024-03-02T16:13:51;22.67;;;14.15;;